sensor_id;sensor_type;location;lat;lon;timestamp;P1;durP1;ratioP1;P2;durP2;ratioP2
67191;SDS011;54120;53.504;49.426;2023-08-08T00:01:39;9.77;;;4.68;;
67191;SDS011;54120;53.504;49.426;2023-08-08T00:04:08;10.98;;;4.78;;
67191;SDS011;54120;53.504;49.426;2023-08-08T00:06:37;8.82;;;4.68;;
67191;SDS011;54120;53.504;49.426;2023-08-08T00:09:03;8.98;;;4.90;;
67191;SDS011;54120;53.504;49.426;2023-08-08T00:11:30;10.00;;;5.00;;
67191;SDS011;54120;53.504;49.426;2023-08-08T00:13:56;10.23;;;4.63;;
67191;SDS011;54120;53.504;49.426;2023-08-08T00:16:23;9.57;;;4.32;;
67191;SDS011;54120;53.504;49.426;2023-08-08T00:18:49;7.25;;;4.40;;
67191;SDS011;54120;53.504;49.426;2023-08-08T00:21:17;10.60;;;4.65;;
67191;SDS011;54120;53.504;49.426;2023-08-08T00:23:43;6.75;;;4.35;;
67191;SDS011;54120;53.504;49.426;2023-08-08T00:26:09;10.75;;;4.90;;
67191;SDS011;54120;53.504;49.426;2023-08-08T00:28:35;9.57;;;4.88;;
67191;SDS011;54120;53.504;49.426;2023-08-08T00:31:01;9.95;;;4.38;;
67191;SDS011;54120;53.504;49.426;2023-08-08T00:33:27;8.55;;;4.80;;
67191;SDS011;54120;53.504;49.426;2023-08-08T00:35:54;9.90;;;4.60;;
67191;SDS011;54120;53.504;49.426;2023-08-08T00:38:20;6.93;;;4.18;;
67191;SDS011;54120;53.504;49.426;2023-08-08T00:40:46;8.38;;;4.30;;
67191;SDS011;54120;53.504;49.426;2023-08-08T00:43:12;12.93;;;4.72;;
67191;SDS011;54120;53.504;49.426;2023-08-08T00:45:39;8.27;;;4.18;;
67191;SDS011;54120;53.504;49.426;2023-08-08T00:48:08;9.20;;;4.90;;
67191;SDS011;54120;53.504;49.426;2023-08-08T00:50:34;15.63;;;4.57;;
67191;SDS011;54120;53.504;49.426;2023-08-08T00:53:02;13.23;;;4.35;;
67191;SDS011;54120;53.504;49.426;2023-08-08T00:55:30;9.10;;;4.65;;
67191;SDS011;54120;53.504;49.426;2023-08-08T00:57:56;9.88;;;4.55;;
67191;SDS011;54120;53.504;49.426;2023-08-08T01:00:23;9.15;;;4.68;;
67191;SDS011;54120;53.504;49.426;2023-08-08T01:02:49;8.07;;;4.30;;
67191;SDS011;54120;53.504;49.426;2023-08-08T01:05:15;9.90;;;4.35;;
67191;SDS011;54120;53.504;49.426;2023-08-08T01:07:43;10.25;;;4.70;;
67191;SDS011;54120;53.504;49.426;2023-08-08T01:10:31;7.65;;;4.40;;
67191;SDS011;54120;53.504;49.426;2023-08-08T01:13:08;9.38;;;4.25;;
67191;SDS011;54120;53.504;49.426;2023-08-08T01:15:39;8.02;;;4.20;;
67191;SDS011;54120;53.504;49.426;2023-08-08T01:18:06;10.57;;;4.10;;
67191;SDS011;54120;53.504;49.426;2023-08-08T01:20:33;9.30;;;4.28;;
67191;SDS011;54120;53.504;49.426;2023-08-08T01:25:37;7.78;;;4.50;;
67191;SDS011;54120;53.504;49.426;2023-08-08T01:28:05;10.98;;;5.28;;
67191;SDS011;54120;53.504;49.426;2023-08-08T01:30:32;5.88;;;4.28;;
67191;SDS011;54120;53.504;49.426;2023-08-08T01:32:58;10.52;;;4.38;;
67191;SDS011;54120;53.504;49.426;2023-08-08T01:35:26;8.77;;;4.55;;
67191;SDS011;54120;53.504;49.426;2023-08-08T01:37:59;10.73;;;4.32;;
67191;SDS011;54120;53.504;49.426;2023-08-08T01:40:34;6.88;;;4.65;;
67191;SDS011;54120;53.504;49.426;2023-08-08T01:43:02;8.80;;;4.30;;
67191;SDS011;54120;53.504;49.426;2023-08-08T01:45:29;13.00;;;4.15;;
67191;SDS011;54120;53.504;49.426;2023-08-08T01:47:55;9.02;;;4.28;;
67191;SDS011;54120;53.504;49.426;2023-08-08T01:50:21;14.35;;;4.72;;
67191;SDS011;54120;53.504;49.426;2023-08-08T01:52:48;6.28;;;4.10;;
67191;SDS011;54120;53.504;49.426;2023-08-08T01:55:14;8.57;;;4.00;;
67191;SDS011;54120;53.504;49.426;2023-08-08T01:57:40;5.47;;;3.88;;
67191;SDS011;54120;53.504;49.426;2023-08-08T02:00:06;10.00;;;4.00;;
67191;SDS011;54120;53.504;49.426;2023-08-08T02:02:33;9.60;;;3.40;;
67191;SDS011;54120;53.504;49.426;2023-08-08T02:05:03;9.50;;;4.20;;
67191;SDS011;54120;53.504;49.426;2023-08-08T02:07:30;11.63;;;4.15;;
67191;SDS011;54120;53.504;49.426;2023-08-08T02:09:56;10.75;;;3.65;;
67191;SDS011;54120;53.504;49.426;2023-08-08T02:12:22;10.73;;;3.80;;
67191;SDS011;54120;53.504;49.426;2023-08-08T02:14:48;32.85;;;5.43;;
67191;SDS011;54120;53.504;49.426;2023-08-08T02:17:14;27.92;;;4.65;;
67191;SDS011;54120;53.504;49.426;2023-08-08T02:19:40;11.77;;;3.63;;
67191;SDS011;54120;53.504;49.426;2023-08-08T02:22:06;10.07;;;3.70;;
67191;SDS011;54120;53.504;49.426;2023-08-08T02:24:32;9.27;;;3.83;;
67191;SDS011;54120;53.504;49.426;2023-08-08T02:26:57;10.77;;;3.97;;
67191;SDS011;54120;53.504;49.426;2023-08-08T02:29:24;5.60;;;3.08;;
67191;SDS011;54120;53.504;49.426;2023-08-08T02:31:50;9.55;;;3.05;;
67191;SDS011;54120;53.504;49.426;2023-08-08T02:34:16;9.18;;;3.10;;
67191;SDS011;54120;53.504;49.426;2023-08-08T02:36:42;7.95;;;3.05;;
67191;SDS011;54120;53.504;49.426;2023-08-08T02:39:08;7.45;;;2.50;;
67191;SDS011;54120;53.504;49.426;2023-08-08T02:41:34;7.65;;;3.05;;
67191;SDS011;54120;53.504;49.426;2023-08-08T02:44:00;9.45;;;3.28;;
67191;SDS011;54120;53.504;49.426;2023-08-08T02:46:26;6.88;;;2.72;;
67191;SDS011;54120;53.504;49.426;2023-08-08T02:48:52;8.60;;;2.45;;
67191;SDS011;54120;53.504;49.426;2023-08-08T02:51:18;6.13;;;2.50;;
67191;SDS011;54120;53.504;49.426;2023-08-08T02:53:44;3.17;;;2.05;;
67191;SDS011;54120;53.504;49.426;2023-08-08T02:56:11;8.90;;;2.50;;
67191;SDS011;54120;53.504;49.426;2023-08-08T02:58:37;7.22;;;2.28;;
67191;SDS011;54120;53.504;49.426;2023-08-08T03:01:03;10.90;;;2.40;;
67191;SDS011;54120;53.504;49.426;2023-08-08T03:03:29;5.90;;;2.30;;
67191;SDS011;54120;53.504;49.426;2023-08-08T03:05:54;5.10;;;2.00;;
67191;SDS011;54120;53.504;49.426;2023-08-08T03:08:21;7.95;;;2.17;;
67191;SDS011;54120;53.504;49.426;2023-08-08T03:10:46;4.75;;;2.72;;
67191;SDS011;54120;53.504;49.426;2023-08-08T03:13:12;7.18;;;2.80;;
67191;SDS011;54120;53.504;49.426;2023-08-08T03:15:38;6.95;;;3.15;;
67191;SDS011;54120;53.504;49.426;2023-08-08T03:18:04;7.25;;;2.70;;
67191;SDS011;54120;53.504;49.426;2023-08-08T03:20:30;6.88;;;2.78;;
67191;SDS011;54120;53.504;49.426;2023-08-08T03:22:56;9.32;;;3.08;;
67191;SDS011;54120;53.504;49.426;2023-08-08T03:25:22;6.68;;;2.80;;
67191;SDS011;54120;53.504;49.426;2023-08-08T03:27:48;11.07;;;3.10;;
67191;SDS011;54120;53.504;49.426;2023-08-08T03:30:14;11.55;;;4.50;;
67191;SDS011;54120;53.504;49.426;2023-08-08T03:32:41;11.90;;;3.40;;
67191;SDS011;54120;53.504;49.426;2023-08-08T03:35:08;13.18;;;4.38;;
67191;SDS011;54120;53.504;49.426;2023-08-08T03:37:34;8.95;;;5.43;;
67191;SDS011;54120;53.504;49.426;2023-08-08T03:40:00;12.80;;;6.75;;
67191;SDS011;54120;53.504;49.426;2023-08-08T03:42:26;33.47;;;5.97;;
67191;SDS011;54120;53.504;49.426;2023-08-08T03:44:52;13.18;;;4.25;;
67191;SDS011;54120;53.504;49.426;2023-08-08T03:47:18;11.27;;;4.85;;
67191;SDS011;54120;53.504;49.426;2023-08-08T03:49:44;8.70;;;3.95;;
67191;SDS011;54120;53.504;49.426;2023-08-08T03:52:10;10.32;;;4.70;;
67191;SDS011;54120;53.504;49.426;2023-08-08T03:54:36;16.83;;;5.07;;
67191;SDS011;54120;53.504;49.426;2023-08-08T03:57:03;19.75;;;6.03;;
67191;SDS011;54120;53.504;49.426;2023-08-08T03:59:29;15.27;;;5.70;;
67191;SDS011;54120;53.504;49.426;2023-08-08T04:01:55;21.83;;;5.03;;
67191;SDS011;54120;53.504;49.426;2023-08-08T04:04:21;21.67;;;7.30;;
67191;SDS011;54120;53.504;49.426;2023-08-08T04:06:47;16.58;;;6.38;;
67191;SDS011;54120;53.504;49.426;2023-08-08T04:09:13;19.60;;;6.38;;
67191;SDS011;54120;53.504;49.426;2023-08-08T04:11:39;19.05;;;6.93;;
67191;SDS011;54120;53.504;49.426;2023-08-08T04:14:05;36.10;;;8.07;;
67191;SDS011;54120;53.504;49.426;2023-08-08T04:16:30;14.25;;;6.97;;
67191;SDS011;54120;53.504;49.426;2023-08-08T04:18:56;20.00;;;7.53;;
67191;SDS011;54120;53.504;49.426;2023-08-08T04:21:24;18.00;;;7.20;;
67191;SDS011;54120;53.504;49.426;2023-08-08T04:23:52;20.67;;;6.90;;
67191;SDS011;54120;53.504;49.426;2023-08-08T04:26:18;22.40;;;7.75;;
67191;SDS011;54120;53.504;49.426;2023-08-08T04:28:44;21.45;;;7.55;;
67191;SDS011;54120;53.504;49.426;2023-08-08T04:31:10;34.08;;;9.85;;
67191;SDS011;54120;53.504;49.426;2023-08-08T04:33:36;27.17;;;8.00;;
67191;SDS011;54120;53.504;49.426;2023-08-08T04:36:03;22.75;;;7.90;;
67191;SDS011;54120;53.504;49.426;2023-08-08T04:38:29;18.10;;;7.47;;
67191;SDS011;54120;53.504;49.426;2023-08-08T04:40:55;18.88;;;7.43;;
67191;SDS011;54120;53.504;49.426;2023-08-08T04:43:22;25.10;;;7.22;;
67191;SDS011;54120;53.504;49.426;2023-08-08T04:45:48;26.77;;;7.68;;
67191;SDS011;54120;53.504;49.426;2023-08-08T04:48:15;29.60;;;8.07;;
67191;SDS011;54120;53.504;49.426;2023-08-08T04:50:41;28.42;;;8.23;;
67191;SDS011;54120;53.504;49.426;2023-08-08T04:53:07;19.17;;;7.15;;
67191;SDS011;54120;53.504;49.426;2023-08-08T04:55:34;19.55;;;7.68;;
67191;SDS011;54120;53.504;49.426;2023-08-08T04:58:00;56.38;;;10.38;;
67191;SDS011;54120;53.504;49.426;2023-08-08T05:00:27;18.10;;;6.80;;
67191;SDS011;54120;53.504;49.426;2023-08-08T05:02:53;18.83;;;7.05;;
67191;SDS011;54120;53.504;49.426;2023-08-08T05:05:19;16.15;;;7.00;;
67191;SDS011;54120;53.504;49.426;2023-08-08T05:07:46;18.95;;;7.32;;
67191;SDS011;54120;53.504;49.426;2023-08-08T05:10:12;23.20;;;8.02;;
67191;SDS011;54120;53.504;49.426;2023-08-08T05:12:39;18.40;;;8.57;;
67191;SDS011;54120;53.504;49.426;2023-08-08T05:15:05;16.25;;;8.45;;
67191;SDS011;54120;53.504;49.426;2023-08-08T05:17:32;24.20;;;9.63;;
67191;SDS011;54120;53.504;49.426;2023-08-08T05:19:58;18.90;;;8.57;;
67191;SDS011;54120;53.504;49.426;2023-08-08T05:22:25;22.33;;;9.55;;
67191;SDS011;54120;53.504;49.426;2023-08-08T05:24:52;12.75;;;6.45;;
67191;SDS011;54120;53.504;49.426;2023-08-08T05:27:18;12.43;;;5.43;;
67191;SDS011;54120;53.504;49.426;2023-08-08T05:29:44;13.93;;;5.82;;
67191;SDS011;54120;53.504;49.426;2023-08-08T05:32:10;11.77;;;5.63;;
67191;SDS011;54120;53.504;49.426;2023-08-08T05:34:36;16.38;;;4.88;;
67191;SDS011;54120;53.504;49.426;2023-08-08T05:37:03;9.88;;;3.03;;
67191;SDS011;54120;53.504;49.426;2023-08-08T05:39:29;23.90;;;4.90;;
67191;SDS011;54120;53.504;49.426;2023-08-08T05:41:56;4.68;;;2.60;;
67191;SDS011;54120;53.504;49.426;2023-08-08T05:44:24;7.25;;;2.55;;
67191;SDS011;54120;53.504;49.426;2023-08-08T05:46:51;11.07;;;2.65;;
67191;SDS011;54120;53.504;49.426;2023-08-08T05:49:18;15.07;;;4.50;;
67191;SDS011;54120;53.504;49.426;2023-08-08T05:51:44;10.63;;;2.78;;
67191;SDS011;54120;53.504;49.426;2023-08-08T05:54:10;7.47;;;2.40;;
67191;SDS011;54120;53.504;49.426;2023-08-08T05:56:37;26.40;;;2.78;;
67191;SDS011;54120;53.504;49.426;2023-08-08T05:59:03;10.45;;;2.40;;
67191;SDS011;54120;53.504;49.426;2023-08-08T06:01:30;9.02;;;2.40;;
67191;SDS011;54120;53.504;49.426;2023-08-08T06:03:58;7.88;;;1.95;;
67191;SDS011;54120;53.504;49.426;2023-08-08T06:06:25;24.08;;;4.00;;
67191;SDS011;54120;53.504;49.426;2023-08-08T06:08:52;24.85;;;2.83;;
67191;SDS011;54120;53.504;49.426;2023-08-08T06:11:19;16.58;;;2.60;;
67191;SDS011;54120;53.504;49.426;2023-08-08T06:13:47;14.68;;;5.90;;
67191;SDS011;54120;53.504;49.426;2023-08-08T06:16:14;11.20;;;2.10;;
67191;SDS011;54120;53.504;49.426;2023-08-08T06:18:41;4.63;;;1.98;;
67191;SDS011;54120;53.504;49.426;2023-08-08T06:21:07;4.55;;;1.80;;
67191;SDS011;54120;53.504;49.426;2023-08-08T06:23:34;5.60;;;1.88;;
67191;SDS011;54120;53.504;49.426;2023-08-08T06:26:00;8.50;;;2.45;;
67191;SDS011;54120;53.504;49.426;2023-08-08T06:28:26;8.65;;;1.67;;
67191;SDS011;54120;53.504;49.426;2023-08-08T06:30:52;4.68;;;1.73;;
67191;SDS011;54120;53.504;49.426;2023-08-08T06:33:18;2.45;;;1.70;;
67191;SDS011;54120;53.504;49.426;2023-08-08T06:35:45;7.82;;;2.03;;
67191;SDS011;54120;53.504;49.426;2023-08-08T06:38:11;3.67;;;1.90;;
67191;SDS011;54120;53.504;49.426;2023-08-08T06:40:38;13.18;;;2.35;;
67191;SDS011;54120;53.504;49.426;2023-08-08T06:43:04;14.23;;;2.15;;
67191;SDS011;54120;53.504;49.426;2023-08-08T06:45:31;3.65;;;1.50;;
67191;SDS011;54120;53.504;49.426;2023-08-08T06:47:57;4.70;;;1.58;;
67191;SDS011;54120;53.504;49.426;2023-08-08T06:50:24;6.35;;;1.60;;
67191;SDS011;54120;53.504;49.426;2023-08-08T06:52:50;3.70;;;1.58;;
67191;SDS011;54120;53.504;49.426;2023-08-08T06:55:17;5.75;;;1.63;;
67191;SDS011;54120;53.504;49.426;2023-08-08T06:57:43;1.50;;;1.40;;
67191;SDS011;54120;53.504;49.426;2023-08-08T07:00:11;18.95;;;2.08;;
67191;SDS011;54120;53.504;49.426;2023-08-08T07:02:39;14.20;;;4.53;;
67191;SDS011;54120;53.504;49.426;2023-08-08T07:05:07;11.63;;;3.10;;
67191;SDS011;54120;53.504;49.426;2023-08-08T07:07:33;3.63;;;1.70;;
67191;SDS011;54120;53.504;49.426;2023-08-08T07:10:01;4.65;;;1.63;;
67191;SDS011;54120;53.504;49.426;2023-08-08T07:12:29;5.07;;;1.58;;
67191;SDS011;54120;53.504;49.426;2023-08-08T07:14:56;12.38;;;2.78;;
67191;SDS011;54120;53.504;49.426;2023-08-08T07:17:22;11.30;;;1.80;;
67191;SDS011;54120;53.504;49.426;2023-08-08T07:19:49;5.80;;;2.78;;
67191;SDS011;54120;53.504;49.426;2023-08-08T07:22:18;26.10;;;23.73;;
67191;SDS011;54120;53.504;49.426;2023-08-08T07:24:45;5.90;;;1.55;;
67191;SDS011;54120;53.504;49.426;2023-08-08T07:27:12;5.30;;;1.80;;
67191;SDS011;54120;53.504;49.426;2023-08-08T07:29:38;4.30;;;1.30;;
67191;SDS011;54120;53.504;49.426;2023-08-08T07:32:05;4.85;;;1.65;;
67191;SDS011;54120;53.504;49.426;2023-08-08T07:34:32;2.63;;;1.52;;
67191;SDS011;54120;53.504;49.426;2023-08-08T07:36:58;2.58;;;1.67;;
67191;SDS011;54120;53.504;49.426;2023-08-08T07:39:25;21.98;;;4.43;;
67191;SDS011;54120;53.504;49.426;2023-08-08T07:41:52;20.67;;;2.97;;
67191;SDS011;54120;53.504;49.426;2023-08-08T07:44:19;9.32;;;1.80;;
67191;SDS011;54120;53.504;49.426;2023-08-08T07:46:45;12.60;;;2.72;;
67191;SDS011;54120;53.504;49.426;2023-08-08T07:49:12;6.15;;;1.65;;
67191;SDS011;54120;53.504;49.426;2023-08-08T07:51:40;3.97;;;2.17;;
67191;SDS011;54120;53.504;49.426;2023-08-08T07:54:07;22.77;;;3.20;;
67191;SDS011;54120;53.504;49.426;2023-08-08T07:56:34;14.00;;;2.50;;
67191;SDS011;54120;53.504;49.426;2023-08-08T07:59:01;19.17;;;2.45;;
67191;SDS011;54120;53.504;49.426;2023-08-08T08:01:29;44.22;;;4.40;;
67191;SDS011;54120;53.504;49.426;2023-08-08T08:03:55;3.47;;;1.88;;
67191;SDS011;54120;53.504;49.426;2023-08-08T08:06:22;6.32;;;2.08;;
67191;SDS011;54120;53.504;49.426;2023-08-08T08:08:49;1.98;;;1.88;;
67191;SDS011;54120;53.504;49.426;2023-08-08T08:11:16;8.07;;;1.80;;
67191;SDS011;54120;53.504;49.426;2023-08-08T08:13:45;4.45;;;2.20;;
67191;SDS011;54120;53.504;49.426;2023-08-08T08:16:11;7.32;;;1.80;;
67191;SDS011;54120;53.504;49.426;2023-08-08T08:18:38;5.22;;;1.88;;
67191;SDS011;54120;53.504;49.426;2023-08-08T08:21:04;3.13;;;1.60;;
67191;SDS011;54120;53.504;49.426;2023-08-08T08:23:31;1.63;;;1.52;;
67191;SDS011;54120;53.504;49.426;2023-08-08T08:25:58;15.88;;;2.47;;
67191;SDS011;54120;53.504;49.426;2023-08-08T08:28:25;6.18;;;1.60;;
67191;SDS011;54120;53.504;49.426;2023-08-08T08:30:52;2.90;;;2.00;;
67191;SDS011;54120;53.504;49.426;2023-08-08T08:33:19;4.35;;;1.48;;
67191;SDS011;54120;53.504;49.426;2023-08-08T08:35:46;4.75;;;1.98;;
67191;SDS011;54120;53.504;49.426;2023-08-08T08:38:13;1.60;;;1.50;;
67191;SDS011;54120;53.504;49.426;2023-08-08T08:40:41;4.03;;;1.80;;
67191;SDS011;54120;53.504;49.426;2023-08-08T08:43:10;10.25;;;2.03;;
67191;SDS011;54120;53.504;49.426;2023-08-08T08:45:37;3.20;;;1.45;;
67191;SDS011;54120;53.504;49.426;2023-08-08T08:48:08;3.88;;;1.52;;
67191;SDS011;54120;53.504;49.426;2023-08-08T08:50:38;2.70;;;1.73;;
67191;SDS011;54120;53.504;49.426;2023-08-08T08:53:05;2.13;;;1.60;;
67191;SDS011;54120;53.504;49.426;2023-08-08T08:55:32;7.45;;;1.73;;
67191;SDS011;54120;53.504;49.426;2023-08-08T08:58:00;1.92;;;1.70;;
67191;SDS011;54120;53.504;49.426;2023-08-08T09:00:27;5.40;;;1.70;;
67191;SDS011;54120;53.504;49.426;2023-08-08T09:02:54;4.22;;;3.30;;
67191;SDS011;54120;53.504;49.426;2023-08-08T09:05:21;10.80;;;1.83;;
67191;SDS011;54120;53.504;49.426;2023-08-08T09:07:50;3.28;;;1.88;;
67191;SDS011;54120;53.504;49.426;2023-08-08T09:10:17;2.95;;;2.00;;
67191;SDS011;54120;53.504;49.426;2023-08-08T09:12:45;3.40;;;1.67;;
67191;SDS011;54120;53.504;49.426;2023-08-08T09:15:12;2.25;;;1.60;;
67191;SDS011;54120;53.504;49.426;2023-08-08T09:17:40;1.92;;;1.60;;
67191;SDS011;54120;53.504;49.426;2023-08-08T09:20:14;4.05;;;1.70;;
67191;SDS011;54120;53.504;49.426;2023-08-08T09:22:43;5.45;;;2.17;;
67191;SDS011;54120;53.504;49.426;2023-08-08T09:25:10;2.53;;;2.00;;
67191;SDS011;54120;53.504;49.426;2023-08-08T09:27:36;2.88;;;1.80;;
67191;SDS011;54120;53.504;49.426;2023-08-08T09:30:02;20.85;;;2.90;;
67191;SDS011;54120;53.504;49.426;2023-08-08T09:32:31;4.50;;;1.48;;
67191;SDS011;54120;53.504;49.426;2023-08-08T09:34:58;3.38;;;1.88;;
67191;SDS011;54120;53.504;49.426;2023-08-08T09:37:26;3.00;;;1.70;;
67191;SDS011;54120;53.504;49.426;2023-08-08T09:39:56;6.45;;;1.85;;
67191;SDS011;54120;53.504;49.426;2023-08-08T09:42:26;8.88;;;2.85;;
67191;SDS011;54120;53.504;49.426;2023-08-08T09:44:53;4.20;;;1.85;;
67191;SDS011;54120;53.504;49.426;2023-08-08T09:47:22;5.75;;;1.88;;
67191;SDS011;54120;53.504;49.426;2023-08-08T09:49:50;4.65;;;1.75;;
67191;SDS011;54120;53.504;49.426;2023-08-08T09:52:16;2.38;;;1.35;;
67191;SDS011;54120;53.504;49.426;2023-08-08T09:54:43;5.68;;;1.95;;
67191;SDS011;54120;53.504;49.426;2023-08-08T09:57:10;1.98;;;1.50;;
67191;SDS011;54120;53.504;49.426;2023-08-08T09:59:39;1.80;;;1.70;;
67191;SDS011;54120;53.504;49.426;2023-08-08T10:02:12;19.90;;;2.67;;
67191;SDS011;54120;53.504;49.426;2023-08-08T10:04:43;6.10;;;1.67;;
67191;SDS011;54120;53.504;49.426;2023-08-08T10:07:13;5.32;;;1.60;;
67191;SDS011;54120;53.504;49.426;2023-08-08T10:09:40;2.88;;;2.38;;
67191;SDS011;54120;53.504;49.426;2023-08-08T10:12:07;3.83;;;1.40;;
67191;SDS011;54120;53.504;49.426;2023-08-08T10:14:37;1.63;;;1.52;;
67191;SDS011;54120;53.504;49.426;2023-08-08T10:17:04;2.15;;;1.98;;
67191;SDS011;54120;53.504;49.426;2023-08-08T10:19:32;1.60;;;1.50;;
67191;SDS011;54120;53.504;49.426;2023-08-08T10:21:59;14.45;;;3.35;;
67191;SDS011;54120;53.504;49.426;2023-08-08T10:24:35;12.52;;;2.15;;
67191;SDS011;54120;53.504;49.426;2023-08-08T10:27:02;6.43;;;1.83;;
67191;SDS011;54120;53.504;49.426;2023-08-08T10:29:31;4.00;;;1.70;;
67191;SDS011;54120;53.504;49.426;2023-08-08T10:32:05;12.55;;;1.85;;
67191;SDS011;54120;53.504;49.426;2023-08-08T10:37:09;7.93;;;1.75;;
67191;SDS011;54120;53.504;49.426;2023-08-08T10:39:54;4.50;;;1.75;;
67191;SDS011;54120;53.504;49.426;2023-08-08T10:42:25;3.53;;;1.85;;
67191;SDS011;54120;53.504;49.426;2023-08-08T10:44:54;4.80;;;1.70;;
67191;SDS011;54120;53.504;49.426;2023-08-08T10:47:25;6.22;;;1.98;;
67191;SDS011;54120;53.504;49.426;2023-08-08T10:49:57;3.00;;;1.90;;
67191;SDS011;54120;53.504;49.426;2023-08-08T10:55:19;10.52;;;2.38;;
67191;SDS011;54120;53.504;49.426;2023-08-08T10:57:53;10.23;;;1.90;;
67191;SDS011;54120;53.504;49.426;2023-08-08T11:00:20;5.30;;;1.70;;
67191;SDS011;54120;53.504;49.426;2023-08-08T11:02:48;2.80;;;1.98;;
67191;SDS011;54120;53.504;49.426;2023-08-08T11:05:16;2.25;;;1.70;;
67191;SDS011;54120;53.504;49.426;2023-08-08T11:07:43;5.60;;;1.65;;
67191;SDS011;54120;53.504;49.426;2023-08-08T11:10:10;2.35;;;1.98;;
67191;SDS011;54120;53.504;49.426;2023-08-08T11:12:36;4.80;;;1.52;;
67191;SDS011;54120;53.504;49.426;2023-08-08T11:15:02;5.47;;;1.63;;
67191;SDS011;54120;53.504;49.426;2023-08-08T11:17:29;2.63;;;1.40;;
67191;SDS011;54120;53.504;49.426;2023-08-08T11:19:55;4.93;;;1.60;;
67191;SDS011;54120;53.504;49.426;2023-08-08T11:22:22;3.65;;;1.50;;
67191;SDS011;54120;53.504;49.426;2023-08-08T11:24:49;3.65;;;1.75;;
67191;SDS011;54120;53.504;49.426;2023-08-08T11:27:16;2.58;;;1.50;;
67191;SDS011;54120;53.504;49.426;2023-08-08T11:29:49;1.80;;;1.50;;
67191;SDS011;54120;53.504;49.426;2023-08-08T11:32:18;2.10;;;1.88;;
67191;SDS011;54120;53.504;49.426;2023-08-08T11:34:46;6.45;;;2.35;;
67191;SDS011;54120;53.504;49.426;2023-08-08T11:37:13;9.05;;;2.58;;
67191;SDS011;54120;53.504;49.426;2023-08-08T11:39:41;4.03;;;1.60;;
67191;SDS011;54120;53.504;49.426;2023-08-08T11:42:07;7.55;;;2.00;;
67191;SDS011;54120;53.504;49.426;2023-08-08T11:44:34;1.80;;;1.60;;
67191;SDS011;54120;53.504;49.426;2023-08-08T11:47:01;6.72;;;1.60;;
67191;SDS011;54120;53.504;49.426;2023-08-08T11:49:28;2.30;;;1.60;;
67191;SDS011;54120;53.504;49.426;2023-08-08T11:51:54;4.95;;;1.40;;
67191;SDS011;54120;53.504;49.426;2023-08-08T11:54:28;8.32;;;1.83;;
67191;SDS011;54120;53.504;49.426;2023-08-08T11:56:56;1.77;;;1.50;;
67191;SDS011;54120;53.504;49.426;2023-08-08T11:59:23;5.22;;;2.90;;
67191;SDS011;54120;53.504;49.426;2023-08-08T12:01:49;1.98;;;1.88;;
67191;SDS011;54120;53.504;49.426;2023-08-08T12:04:17;8.30;;;2.13;;
67191;SDS011;54120;53.504;49.426;2023-08-08T12:06:46;3.90;;;2.83;;
67191;SDS011;54120;53.504;49.426;2023-08-08T12:09:12;1.63;;;1.50;;
67191;SDS011;54120;53.504;49.426;2023-08-08T12:11:39;3.60;;;1.70;;
67191;SDS011;54120;53.504;49.426;2023-08-08T12:14:07;3.33;;;1.40;;
67191;SDS011;54120;53.504;49.426;2023-08-08T12:16:37;11.95;;;1.60;;
67191;SDS011;54120;53.504;49.426;2023-08-08T12:19:07;3.90;;;1.60;;
67191;SDS011;54120;53.504;49.426;2023-08-08T12:21:38;8.65;;;1.88;;
67191;SDS011;54120;53.504;49.426;2023-08-08T12:24:05;4.38;;;1.60;;
67191;SDS011;54120;53.504;49.426;2023-08-08T12:26:32;5.88;;;1.40;;
67191;SDS011;54120;53.504;49.426;2023-08-08T12:28:59;6.50;;;1.40;;
67191;SDS011;54120;53.504;49.426;2023-08-08T12:31:26;3.60;;;1.58;;
67191;SDS011;54120;53.504;49.426;2023-08-08T12:33:52;4.75;;;1.50;;
67191;SDS011;54120;53.504;49.426;2023-08-08T12:36:18;51.45;;;4.88;;
67191;SDS011;54120;53.504;49.426;2023-08-08T12:38:44;12.48;;;2.83;;
67191;SDS011;54120;53.504;49.426;2023-08-08T12:41:12;1.45;;;1.35;;
67191;SDS011;54120;53.504;49.426;2023-08-08T12:43:38;2.53;;;1.23;;
67191;SDS011;54120;53.504;49.426;2023-08-08T12:46:05;26.10;;;10.40;;
67191;SDS011;54120;53.504;49.426;2023-08-08T12:48:32;3.30;;;1.90;;
67191;SDS011;54120;53.504;49.426;2023-08-08T12:50:58;2.65;;;1.52;;
67191;SDS011;54120;53.504;49.426;2023-08-08T12:53:26;2.03;;;1.75;;
67191;SDS011;54120;53.504;49.426;2023-08-08T12:55:52;2.72;;;1.50;;
67191;SDS011;54120;53.504;49.426;2023-08-08T12:58:18;5.57;;;1.60;;
67191;SDS011;54120;53.504;49.426;2023-08-08T13:00:45;12.85;;;3.03;;
67191;SDS011;54120;53.504;49.426;2023-08-08T13:03:12;2.40;;;1.45;;
67191;SDS011;54120;53.504;49.426;2023-08-08T13:05:40;3.55;;;1.63;;
67191;SDS011;54120;53.504;49.426;2023-08-08T13:08:06;3.38;;;1.52;;
67191;SDS011;54120;53.504;49.426;2023-08-08T13:10:32;6.53;;;2.42;;
67191;SDS011;54120;53.504;49.426;2023-08-08T13:12:59;1.40;;;1.30;;
67191;SDS011;54120;53.504;49.426;2023-08-08T13:15:26;4.68;;;1.50;;
67191;SDS011;54120;53.504;49.426;2023-08-08T13:17:52;4.70;;;2.30;;
67191;SDS011;54120;53.504;49.426;2023-08-08T13:20:18;2.03;;;1.50;;
67191;SDS011;54120;53.504;49.426;2023-08-08T13:22:45;3.20;;;1.58;;
67191;SDS011;54120;53.504;49.426;2023-08-08T13:25:11;2.67;;;2.20;;
67191;SDS011;54120;53.504;49.426;2023-08-08T13:27:37;1.70;;;1.60;;
67191;SDS011;54120;53.504;49.426;2023-08-08T13:30:04;1.60;;;1.50;;
67191;SDS011;54120;53.504;49.426;2023-08-08T13:32:32;3.90;;;1.88;;
67191;SDS011;54120;53.504;49.426;2023-08-08T13:34:58;1.42;;;1.27;;
67191;SDS011;54120;53.504;49.426;2023-08-08T13:37:24;4.75;;;1.98;;
67191;SDS011;54120;53.504;49.426;2023-08-08T13:39:51;1.42;;;1.33;;
67191;SDS011;54120;53.504;49.426;2023-08-08T13:42:17;24.77;;;2.30;;
67191;SDS011;54120;53.504;49.426;2023-08-08T13:44:43;3.20;;;1.50;;
67191;SDS011;54120;53.504;49.426;2023-08-08T13:47:10;3.45;;;1.40;;
67191;SDS011;54120;53.504;49.426;2023-08-08T13:49:37;25.10;;;3.30;;
67191;SDS011;54120;53.504;49.426;2023-08-08T13:52:03;1.33;;;1.20;;
67191;SDS011;54120;53.504;49.426;2023-08-08T13:54:31;5.63;;;1.63;;
67191;SDS011;54120;53.504;49.426;2023-08-08T13:56:57;29.42;;;2.85;;
67191;SDS011;54120;53.504;49.426;2023-08-08T13:59:24;1.98;;;1.50;;
67191;SDS011;54120;53.504;49.426;2023-08-08T14:01:50;1.80;;;1.70;;
67191;SDS011;54120;53.504;49.426;2023-08-08T14:04:17;4.38;;;2.88;;
67191;SDS011;54120;53.504;49.426;2023-08-08T14:06:43;3.63;;;1.42;;
67191;SDS011;54120;53.504;49.426;2023-08-08T14:09:09;4.25;;;1.60;;
67191;SDS011;54120;53.504;49.426;2023-08-08T14:11:36;96.63;;;6.45;;
67191;SDS011;54120;53.504;49.426;2023-08-08T14:14:04;16.30;;;2.42;;
67191;SDS011;54120;53.504;49.426;2023-08-08T14:16:30;44.25;;;3.53;;
67191;SDS011;54120;53.504;49.426;2023-08-08T14:18:56;7.55;;;1.80;;
67191;SDS011;54120;53.504;49.426;2023-08-08T14:21:22;4.68;;;1.98;;
67191;SDS011;54120;53.504;49.426;2023-08-08T14:23:49;4.88;;;2.38;;
67191;SDS011;54120;53.504;49.426;2023-08-08T14:26:15;4.40;;;2.83;;
67191;SDS011;54120;53.504;49.426;2023-08-08T14:28:41;6.50;;;2.17;;
67191;SDS011;54120;53.504;49.426;2023-08-08T14:31:08;3.83;;;2.30;;
67191;SDS011;54120;53.504;49.426;2023-08-08T14:33:34;5.47;;;2.22;;
67191;SDS011;54120;53.504;49.426;2023-08-08T14:36:02;7.43;;;2.05;;
67191;SDS011;54120;53.504;49.426;2023-08-08T14:38:34;3.03;;;1.90;;